sensor_id;sensor_type;location;lat;lon;timestamp;pressure;altitude;pressure_sealevel;temperature;humidity
46682;BME280;34101;53.430;-2.224;2023-02-03T00:00:26;39733.12;;;-148.94;100.00
46682;BME280;34101;53.430;-2.224;2023-02-03T00:02:54;39780.22;;;-148.94;100.00
46682;BME280;34101;53.430;-2.224;2023-02-03T00:05:21;39469.01;;;-148.94;100.00
46682;BME280;34101;53.430;-2.224;2023-02-03T00:07:49;39138.55;;;-148.94;100.00
46682;BME280;34101;53.430;-2.224;2023-02-03T00:10:16;39483.18;;;-148.94;100.00
46682;BME280;34101;53.430;-2.224;2023-02-03T00:12:43;39866.65;;;-148.94;100.00
46682;BME280;34101;53.430;-2.224;2023-02-03T00:15:11;40023.80;;;-148.94;100.00
46682;BME280;34101;53.430;-2.224;2023-02-03T00:17:38;39618.36;;;-148.94;100.00
46682;BME280;34101;53.430;-2.224;2023-02-03T00:20:06;40109.08;;;-148.94;100.00
46682;BME280;34101;53.430;-2.224;2023-02-03T00:22:34;39635.21;;;-148.94;100.00
46682;BME280;34101;53.430;-2.224;2023-02-03T00:25:02;39807.28;;;-148.94;100.00
46682;BME280;34101;53.430;-2.224;2023-02-03T00:27:29;40125.80;;;-148.94;100.00
46682;BME280;34101;53.430;-2.224;2023-02-03T00:29:58;40061.20;;;-148.94;100.00
46682;BME280;34101;53.430;-2.224;2023-02-03T00:32:25;40486.74;;;-148.94;100.00
46682;BME280;34101;53.430;-2.224;2023-02-03T00:34:52;39852.09;;;-148.94;100.00
46682;BME280;34101;53.430;-2.224;2023-02-03T00:37:19;39922.31;;;-148.94;100.00
46682;BME280;34101;53.430;-2.224;2023-02-03T00:39:47;40533.98;;;-148.94;100.00
46682;BME280;34101;53.430;-2.224;2023-02-03T00:42:15;40329.82;;;-148.94;100.00
46682;BME280;34101;53.430;-2.224;2023-02-03T00:44:42;40218.62;;;-148.94;100.00
46682;BME280;34101;53.430;-2.224;2023-02-03T00:47:10;39994.82;;;-148.94;100.00
46682;BME280;34101;53.430;-2.224;2023-02-03T00:49:37;40683.37;;;-148.94;100.00
46682;BME280;34101;53.430;-2.224;2023-02-03T00:52:05;40136.91;;;-148.94;100.00
46682;BME280;34101;53.430;-2.224;2023-02-03T00:54:32;39695.97;;;-148.94;100.00
46682;BME280;34101;53.430;-2.224;2023-02-03T00:56:59;40151.72;;;-148.94;100.00
46682;BME280;34101;53.430;-2.224;2023-02-03T00:59:27;40419.58;;;-148.94;100.00
46682;BME280;34101;53.430;-2.224;2023-02-03T01:01:55;40164.49;;;-148.94;100.00
46682;BME280;34101;53.430;-2.224;2023-02-03T01:04:22;40490.82;;;-148.94;100.00
46682;BME280;34101;53.430;-2.224;2023-02-03T01:06:50;40018.31;;;-148.94;100.00
46682;BME280;34101;53.430;-2.224;2023-02-03T01:09:17;40253.34;;;-148.94;100.00
46682;BME280;34101;53.430;-2.224;2023-02-03T01:11:45;39957.29;;;-148.94;100.00
46682;BME280;34101;53.430;-2.224;2023-02-03T01:14:12;40062.99;;;-148.94;100.00
46682;BME280;34101;53.430;-2.224;2023-02-03T01:16:40;40197.68;;;-148.94;100.00
46682;BME280;34101;53.430;-2.224;2023-02-03T01:19:08;40748.49;;;-148.94;100.00
46682;BME280;34101;53.430;-2.224;2023-02-03T01:21:35;40022.78;;;-148.94;100.00
46682;BME280;34101;53.430;-2.224;2023-02-03T01:24:03;40799.56;;;-148.94;100.00
46682;BME280;34101;53.430;-2.224;2023-02-03T01:26:30;40719.50;;;-148.94;100.00
46682;BME280;34101;53.430;-2.224;2023-02-03T01:28:59;40734.06;;;-148.94;100.00
46682;BME280;34101;53.430;-2.224;2023-02-03T01:31:28;40727.29;;;-148.94;100.00
46682;BME280;34101;53.430;-2.224;2023-02-03T01:33:56;40875.67;;;-148.94;100.00
46682;BME280;34101;53.430;-2.224;2023-02-03T01:36:25;41126.59;;;-148.94;100.00
46682;BME280;34101;53.430;-2.224;2023-02-03T01:38:53;41193.25;;;-148.94;100.00
46682;BME280;34101;53.430;-2.224;2023-02-03T01:41:23;40800.71;;;-148.94;100.00
46682;BME280;34101;53.430;-2.224;2023-02-03T01:43:52;40712.73;;;-148.94;100.00
46682;BME280;34101;53.430;-2.224;2023-02-03T01:46:30;39934.56;;;-148.94;100.00
46682;BME280;34101;53.430;-2.224;2023-02-03T01:49:05;40134.87;;;-148.94;100.00
46682;BME280;34101;53.430;-2.224;2023-02-03T01:51:34;41005.40;;;-148.94;100.00
46682;BME280;34101;53.430;-2.224;2023-02-03T01:54:03;39945.16;;;-148.94;100.00
46682;BME280;34101;53.430;-2.224;2023-02-03T01:56:35;39730.18;;;-148.94;100.00
46682;BME280;34101;53.430;-2.224;2023-02-03T01:59:05;39701.59;;;-148.94;100.00
46682;BME280;34101;53.430;-2.224;2023-02-03T02:01:34;39633.16;;;-148.94;100.00
46682;BME280;34101;53.430;-2.224;2023-02-03T02:04:03;39463.14;;;-148.94;100.00
46682;BME280;34101;53.430;-2.224;2023-02-03T02:06:32;39845.33;;;-148.94;100.00
46682;BME280;34101;53.430;-2.224;2023-02-03T02:09:00;39452.92;;;-148.94;100.00
46682;BME280;34101;53.430;-2.224;2023-02-03T02:11:28;39880.56;;;-148.94;100.00
46682;BME280;34101;53.430;-2.224;2023-02-03T02:13:59;39714.22;;;-148.94;100.00
46682;BME280;34101;53.430;-2.224;2023-02-03T02:16:38;39375.06;;;-148.94;100.00
46682;BME280;34101;53.430;-2.224;2023-02-03T02:19:31;40085.33;;;-148.94;100.00
46682;BME280;34101;53.430;-2.224;2023-02-03T02:22:10;39884.26;;;-148.94;100.00
46682;BME280;34101;53.430;-2.224;2023-02-03T02:25:02;39713.20;;;-148.94;100.00
46682;BME280;34101;53.430;-2.224;2023-02-03T02:28:10;39855.41;;;-148.94;100.00
46682;BME280;34101;53.430;-2.224;2023-02-03T02:31:02;40007.20;;;-148.94;100.00
46682;BME280;34101;53.430;-2.224;2023-02-03T02:33:42;39851.84;;;-148.94;100.00
46682;BME280;34101;53.430;-2.224;2023-02-03T02:36:23;39574.45;;;-148.94;100.00
46682;BME280;34101;53.430;-2.224;2023-02-03T02:39:02;39446.29;;;-148.94;100.00
46682;BME280;34101;53.430;-2.224;2023-02-03T02:41:38;39645.16;;;-148.94;100.00
46682;BME280;34101;53.430;-2.224;2023-02-03T02:44:13;39362.55;;;-148.94;100.00
46682;BME280;34101;53.430;-2.224;2023-02-03T02:46:46;39479.73;;;-148.94;100.00
46682;BME280;34101;53.430;-2.224;2023-02-03T02:49:17;39106.00;;;-148.94;100.00
46682;BME280;34101;53.430;-2.224;2023-02-03T02:51:47;39438.12;;;-148.94;100.00
46682;BME280;34101;53.430;-2.224;2023-02-03T02:54:17;39451.78;;;-148.94;100.00
46682;BME280;34101;53.430;-2.224;2023-02-03T02:56:50;38953.48;;;-148.94;100.00
46682;BME280;34101;53.430;-2.224;2023-02-03T02:59:18;38758.85;;;-148.94;100.00
46682;BME280;34101;53.430;-2.224;2023-02-03T03:01:45;38363.75;;;-148.94;100.00
46682;BME280;34101;53.430;-2.224;2023-02-03T03:04:16;39313.54;;;-148.94;100.00
46682;BME280;34101;53.430;-2.224;2023-02-03T03:06:47;39116.34;;;-148.94;100.00
46682;BME280;34101;53.430;-2.224;2023-02-03T03:09:20;38980.28;;;-148.94;100.00
46682;BME280;34101;53.430;-2.224;2023-02-03T03:11:50;38463.16;;;-148.94;100.00
46682;BME280;34101;53.430;-2.224;2023-02-03T03:14:19;38565.25;;;-148.94;100.00
46682;BME280;34101;53.430;-2.224;2023-02-03T03:16:50;38533.60;;;-148.94;100.00
46682;BME280;34101;53.430;-2.224;2023-02-03T03:19:21;38538.70;;;-148.94;100.00
46682;BME280;34101;53.430;-2.224;2023-02-03T03:21:58;38128.44;;;-148.94;100.00
46682;BME280;34101;53.430;-2.224;2023-02-03T03:24:29;38105.47;;;-148.94;100.00
46682;BME280;34101;53.430;-2.224;2023-02-03T03:27:03;39885.67;;;-148.94;100.00
46682;BME280;34101;53.430;-2.224;2023-02-03T03:29:36;39313.67;;;-148.94;100.00
46682;BME280;34101;53.430;-2.224;2023-02-03T03:32:05;39941.46;;;-148.94;100.00
46682;BME280;34101;53.430;-2.224;2023-02-03T03:34:33;39741.67;;;-148.94;100.00
46682;BME280;34101;53.430;-2.224;2023-02-03T03:37:04;39493.13;;;-148.94;100.00
46682;BME280;34101;53.430;-2.224;2023-02-03T03:39:38;39329.88;;;-148.94;100.00
46682;BME280;34101;53.430;-2.224;2023-02-03T03:42:13;39933.92;;;-148.94;100.00
46682;BME280;34101;53.430;-2.224;2023-02-03T03:44:48;40475.50;;;-148.94;100.00
46682;BME280;34101;53.430;-2.224;2023-02-03T03:47:22;39862.05;;;-148.94;100.00
46682;BME280;34101;53.430;-2.224;2023-02-03T03:49:53;39354.77;;;-148.94;100.00
46682;BME280;34101;53.430;-2.224;2023-02-03T03:52:24;40184.02;;;-148.94;100.00
46682;BME280;34101;53.430;-2.224;2023-02-03T03:54:55;39543.55;;;-148.94;100.00
46682;BME280;34101;53.430;-2.224;2023-02-03T03:57:27;39427.52;;;-148.94;100.00
46682;BME280;34101;53.430;-2.224;2023-02-03T04:00:03;40055.33;;;-148.94;100.00
46682;BME280;34101;53.430;-2.224;2023-02-03T04:02:33;39864.60;;;-148.94;100.00
46682;BME280;34101;53.430;-2.224;2023-02-03T04:05:04;39889.50;;;-148.94;100.00
46682;BME280;34101;53.430;-2.224;2023-02-03T04:07:40;39645.80;;;-148.94;100.00
46682;BME280;34101;53.430;-2.224;2023-02-03T04:10:15;39602.66;;;-148.94;100.00
46682;BME280;34101;53.430;-2.224;2023-02-03T04:12:44;39735.93;;;-148.94;100.00
46682;BME280;34101;53.430;-2.224;2023-02-03T04:15:11;39761.33;;;-148.94;100.00
46682;BME280;34101;53.430;-2.224;2023-02-03T04:17:39;39097.19;;;-148.94;100.00
46682;BME280;34101;53.430;-2.224;2023-02-03T04:20:07;39391.78;;;-148.94;100.00
46682;BME280;34101;53.430;-2.224;2023-02-03T04:22:35;39687.29;;;-148.94;100.00
46682;BME280;34101;53.430;-2.224;2023-02-03T04:25:02;39223.42;;;-148.94;100.00
46682;BME280;34101;53.430;-2.224;2023-02-03T04:27:29;38831.85;;;-148.94;100.00
46682;BME280;34101;53.430;-2.224;2023-02-03T04:29:57;39339.70;;;-148.94;100.00
46682;BME280;34101;53.430;-2.224;2023-02-03T04:32:24;38838.74;;;-148.94;100.00
46682;BME280;34101;53.430;-2.224;2023-02-03T04:34:52;38346.26;;;-148.94;100.00
46682;BME280;34101;53.430;-2.224;2023-02-03T04:37:19;38865.29;;;-148.94;100.00
46682;BME280;34101;53.430;-2.224;2023-02-03T04:39:47;39496.83;;;-148.94;100.00
46682;BME280;34101;53.430;-2.224;2023-02-03T04:42:15;38871.03;;;-148.94;100.00
46682;BME280;34101;53.430;-2.224;2023-02-03T04:44:42;39020.74;;;-148.94;100.00
46682;BME280;34101;53.430;-2.224;2023-02-03T04:47:09;39189.60;;;-148.94;100.00
46682;BME280;34101;53.430;-2.224;2023-02-03T04:49:37;38764.72;;;-148.94;100.00
46682;BME280;34101;53.430;-2.224;2023-02-03T04:52:05;39274.22;;;-148.94;100.00
46682;BME280;34101;53.430;-2.224;2023-02-03T04:54:33;39311.11;;;-148.94;100.00
46682;BME280;34101;53.430;-2.224;2023-02-03T04:57:00;39421.01;;;-148.94;100.00
46682;BME280;34101;53.430;-2.224;2023-02-03T04:59:27;39819.67;;;-148.94;100.00
46682;BME280;34101;53.430;-2.224;2023-02-03T05:01:55;39531.68;;;-148.94;100.00
46682;BME280;34101;53.430;-2.224;2023-02-03T05:04:22;39591.29;;;-148.94;100.00
46682;BME280;34101;53.430;-2.224;2023-02-03T05:06:50;39224.83;;;-148.94;100.00
46682;BME280;34101;53.430;-2.224;2023-02-03T05:09:17;38847.16;;;-148.94;100.00
46682;BME280;34101;53.430;-2.224;2023-02-03T05:11:44;39248.44;;;-148.94;100.00
46682;BME280;34101;53.430;-2.224;2023-02-03T05:14:12;38443.50;;;-148.94;100.00
46682;BME280;34101;53.430;-2.224;2023-02-03T05:16:39;38873.33;;;-148.94;100.00
46682;BME280;34101;53.430;-2.224;2023-02-03T05:19:06;38771.87;;;-148.94;100.00
46682;BME280;34101;53.430;-2.224;2023-02-03T05:21:34;38404.33;;;-148.94;100.00
46682;BME280;34101;53.430;-2.224;2023-02-03T05:24:01;38398.84;;;-148.94;100.00
46682;BME280;34101;53.430;-2.224;2023-02-03T05:26:29;37909.10;;;-148.94;100.00
46682;BME280;34101;53.430;-2.224;2023-02-03T05:28:56;38307.85;;;-148.94;100.00
46682;BME280;34101;53.430;-2.224;2023-02-03T05:31:23;38130.86;;;-148.94;100.00
46682;BME280;34101;53.430;-2.224;2023-02-03T05:33:51;38074.08;;;-148.94;100.00
46682;BME280;34101;53.430;-2.224;2023-02-03T05:36:18;38578.27;;;-148.94;100.00
46682;BME280;34101;53.430;-2.224;2023-02-03T05:38:46;38252.34;;;-148.94;100.00
46682;BME280;34101;53.430;-2.224;2023-02-03T05:41:13;37804.21;;;-148.94;100.00
46682;BME280;34101;53.430;-2.224;2023-02-03T05:43:40;38053.79;;;-148.94;100.00
46682;BME280;34101;53.430;-2.224;2023-02-03T05:46:08;38137.63;;;-148.94;100.00
46682;BME280;34101;53.430;-2.224;2023-02-03T05:48:35;37805.87;;;-148.94;100.00
46682;BME280;34101;53.430;-2.224;2023-02-03T05:51:03;38031.72;;;-148.94;100.00
46682;BME280;34101;53.430;-2.224;2023-02-03T05:53:30;38506.03;;;-148.94;100.00
46682;BME280;34101;53.430;-2.224;2023-02-03T05:55:57;37922.49;;;-148.94;100.00
46682;BME280;34101;53.430;-2.224;2023-02-03T05:58:25;37520.97;;;-148.94;100.00
46682;BME280;34101;53.430;-2.224;2023-02-03T06:00:52;37178.55;;;-148.94;100.00
46682;BME280;34101;53.430;-2.224;2023-02-03T06:03:19;37713.24;;;-148.94;100.00
46682;BME280;34101;53.430;-2.224;2023-02-03T06:05:47;38121.29;;;-148.94;100.00
46682;BME280;34101;53.430;-2.224;2023-02-03T06:08:15;37541.64;;;-148.94;100.00
46682;BME280;34101;53.430;-2.224;2023-02-03T06:10:42;38065.28;;;-148.94;100.00
46682;BME280;34101;53.430;-2.224;2023-02-03T06:13:10;38516.37;;;-148.94;100.00
46682;BME280;34101;53.430;-2.224;2023-02-03T06:15:38;38998.15;;;-148.94;100.00
46682;BME280;34101;53.430;-2.224;2023-02-03T06:18:06;38882.64;;;-148.94;100.00
46682;BME280;34101;53.430;-2.224;2023-02-03T06:20:34;38427.55;;;-148.94;100.00
46682;BME280;34101;53.430;-2.224;2023-02-03T06:23:02;38905.23;;;-148.94;100.00
46682;BME280;34101;53.430;-2.224;2023-02-03T06:25:29;38606.09;;;-148.94;100.00
46682;BME280;34101;53.430;-2.224;2023-02-03T06:27:57;38621.91;;;-148.94;100.00
46682;BME280;34101;53.430;-2.224;2023-02-03T06:30:24;38629.82;;;-148.94;100.00
46682;BME280;34101;53.430;-2.224;2023-02-03T06:32:52;38751.57;;;-148.94;100.00
46682;BME280;34101;53.430;-2.224;2023-02-03T06:35:19;38941.61;;;-148.94;100.00
46682;BME280;34101;53.430;-2.224;2023-02-03T06:37:47;39070.26;;;-148.94;100.00
46682;BME280;34101;53.430;-2.224;2023-02-03T06:40:14;38458.43;;;-148.94;100.00
46682;BME280;34101;53.430;-2.224;2023-02-03T06:42:44;38697.46;;;-148.94;100.00
46682;BME280;34101;53.430;-2.224;2023-02-03T06:45:11;38903.32;;;-148.94;100.00
46682;BME280;34101;53.430;-2.224;2023-02-03T06:47:39;38666.32;;;-148.94;100.00
46682;BME280;34101;53.430;-2.224;2023-02-03T06:50:07;39273.33;;;-148.94;100.00
46682;BME280;34101;53.430;-2.224;2023-02-03T06:52:34;39134.72;;;-148.94;100.00
46682;BME280;34101;53.430;-2.224;2023-02-03T06:55:02;39417.06;;;-148.94;100.00
46682;BME280;34101;53.430;-2.224;2023-02-03T06:57:30;38633.27;;;-148.94;100.00
46682;BME280;34101;53.430;-2.224;2023-02-03T06:59:58;38415.17;;;-148.94;100.00
46682;BME280;34101;53.430;-2.224;2023-02-03T07:02:26;38938.29;;;-148.94;100.00
46682;BME280;34101;53.430;-2.224;2023-02-03T07:04:53;38441.84;;;-148.94;100.00
46682;BME280;34101;53.430;-2.224;2023-02-03T07:07:20;38600.22;;;-148.94;100.00
46682;BME280;34101;53.430;-2.224;2023-02-03T07:09:48;38221.08;;;-148.94;100.00
46682;BME280;34101;53.430;-2.224;2023-02-03T07:12:15;38597.66;;;-148.94;100.00
46682;BME280;34101;53.430;-2.224;2023-02-03T07:14:42;38630.59;;;-148.94;100.00
46682;BME280;34101;53.430;-2.224;2023-02-03T07:17:10;38472.85;;;-148.94;100.00
46682;BME280;34101;53.430;-2.224;2023-02-03T07:19:37;38580.31;;;-148.94;100.00
46682;BME280;34101;53.430;-2.224;2023-02-03T07:22:05;38209.21;;;-148.94;100.00
46682;BME280;34101;53.430;-2.224;2023-02-03T07:24:32;37912.16;;;-148.94;100.00
46682;BME280;34101;53.430;-2.224;2023-02-03T07:26:59;37945.46;;;-148.94;100.00
46682;BME280;34101;53.430;-2.224;2023-02-03T07:29:27;38209.47;;;-148.94;100.00
46682;BME280;34101;53.430;-2.224;2023-02-03T07:31:54;38218.27;;;-148.94;100.00
46682;BME280;34101;53.430;-2.224;2023-02-03T07:34:23;37660.42;;;-148.94;100.00
46682;BME280;34101;53.430;-2.224;2023-02-03T07:36:50;37297.45;;;-148.94;100.00
46682;BME280;34101;53.430;-2.224;2023-02-03T07:39:17;37814.80;;;-148.94;100.00
46682;BME280;34101;53.430;-2.224;2023-02-03T07:41:45;38155.11;;;-148.94;100.00
46682;BME280;34101;53.430;-2.224;2023-02-03T07:44:12;38274.04;;;-148.94;100.00
46682;BME280;34101;53.430;-2.224;2023-02-03T07:46:39;39012.95;;;-148.94;100.00
46682;BME280;34101;53.430;-2.224;2023-02-03T07:49:07;39504.88;;;-148.94;100.00
46682;BME280;34101;53.430;-2.224;2023-02-03T07:51:34;40470.52;;;-148.94;100.00
46682;BME280;34101;53.430;-2.224;2023-02-03T07:54:02;40309.27;;;-148.94;100.00
46682;BME280;34101;53.430;-2.224;2023-02-03T07:56:29;40028.14;;;-148.94;100.00
46682;BME280;34101;53.430;-2.224;2023-02-03T07:58:57;40323.05;;;-148.94;100.00
46682;BME280;34101;53.430;-2.224;2023-02-03T08:01:24;40673.15;;;-148.94;100.00
46682;BME280;34101;53.430;-2.224;2023-02-03T08:03:51;40936.32;;;-148.94;100.00
46682;BME280;34101;53.430;-2.224;2023-02-03T08:06:19;41130.93;;;-148.94;100.00
46682;BME280;34101;53.430;-2.224;2023-02-03T08:08:46;40732.91;;;-148.94;100.00
46682;BME280;34101;53.430;-2.224;2023-02-03T08:11:14;40905.93;;;-148.94;100.00
46682;BME280;34101;53.430;-2.224;2023-02-03T08:13:41;41531.55;;;-148.94;100.00
46682;BME280;34101;53.430;-2.224;2023-02-03T08:16:08;41128.38;;;-148.94;100.00
46682;BME280;34101;53.430;-2.224;2023-02-03T08:18:36;41233.99;;;-148.94;100.00
46682;BME280;34101;53.430;-2.224;2023-02-03T08:21:03;41344.07;;;-148.94;100.00
46682;BME280;34101;53.430;-2.224;2023-02-03T08:23:31;41162.22;;;-148.94;100.00
46682;BME280;34101;53.430;-2.224;2023-02-03T08:25:58;42092.76;;;-148.94;100.00
46682;BME280;34101;53.430;-2.224;2023-02-03T08:28:25;41298.73;;;-148.94;100.00
46682;BME280;34101;53.430;-2.224;2023-02-03T08:30:53;41395.28;;;-148.94;100.00
46682;BME280;34101;53.430;-2.224;2023-02-03T08:33:20;41213.55;;;-148.94;100.00
46682;BME280;34101;53.430;-2.224;2023-02-03T08:35:49;41261.44;;;-148.94;100.00
46682;BME280;34101;53.430;-2.224;2023-02-03T08:38:16;41037.20;;;-148.94;100.00
46682;BME280;34101;53.430;-2.224;2023-02-03T08:40:43;40930.83;;;-148.94;100.00
46682;BME280;34101;53.430;-2.224;2023-02-03T08:43:11;41033.62;;;-148.94;100.00
46682;BME280;34101;53.430;-2.224;2023-02-03T08:45:38;40963.90;;;-148.94;100.00
46682;BME280;34101;53.430;-2.224;2023-02-03T08:48:06;40831.10;;;-148.94;100.00
46682;BME280;34101;53.430;-2.224;2023-02-03T08:50:33;40685.03;;;-148.94;100.00
46682;BME280;34101;53.430;-2.224;2023-02-03T08:53:00;40804.03;;;-148.94;100.00
46682;BME280;34101;53.430;-2.224;2023-02-03T08:55:28;41193.25;;;-148.94;100.00
46682;BME280;34101;53.430;-2.224;2023-02-03T08:57:56;41266.55;;;-148.94;100.00
46682;BME280;34101;53.430;-2.224;2023-02-03T09:00:23;41183.54;;;-148.94;100.00
46682;BME280;34101;53.430;-2.224;2023-02-03T09:02:50;41021.11;;;-148.94;100.00
46682;BME280;34101;53.430;-2.224;2023-02-03T09:05:18;40832.89;;;-148.94;100.00
46682;BME280;34101;53.430;-2.224;2023-02-03T09:07:45;41048.44;;;-148.94;100.00
46682;BME280;34101;53.430;-2.224;2023-02-03T09:10:13;40842.98;;;-148.94;100.00
46682;BME280;34101;53.430;-2.224;2023-02-03T09:12:40;40445.37;;;-148.94;100.00
46682;BME280;34101;53.430;-2.224;2023-02-03T09:15:08;41461.82;;;-148.94;100.00
46682;BME280;34101;53.430;-2.224;2023-02-03T09:17:36;41714.56;;;-148.94;100.00
46682;BME280;34101;53.430;-2.224;2023-02-03T09:20:04;40986.25;;;-148.94;100.00
46682;BME280;34101;53.430;-2.224;2023-02-03T09:22:32;40884.86;;;-148.94;100.00
46682;BME280;34101;53.430;-2.224;2023-02-03T09:24:59;40638.93;;;-148.94;100.00
46682;BME280;34101;53.430;-2.224;2023-02-03T09:27:26;40913.59;;;-148.94;100.00
46682;BME280;34101;53.430;-2.224;2023-02-03T09:29:54;40284.50;;;-148.94;100.00
46682;BME280;34101;53.430;-2.224;2023-02-03T09:32:21;40243.26;;;-148.94;100.00
46682;BME280;34101;53.430;-2.224;2023-02-03T09:34:48;40203.94;;;-148.94;100.00
46682;BME280;34101;53.430;-2.224;2023-02-03T09:37:16;39790.69;;;-148.94;100.00
46682;BME280;34101;53.430;-2.224;2023-02-03T09:39:43;39559.51;;;-148.94;100.00
46682;BME280;34101;53.430;-2.224;2023-02-03T09:42:26;39434.29;;;-148.94;100.00
46682;BME280;34101;53.430;-2.224;2023-02-03T09:45:09;39199.30;;;-148.94;100.00
46682;BME280;34101;53.430;-2.224;2023-02-03T09:47:42;39570.62;;;-148.94;100.00
46682;BME280;34101;53.430;-2.224;2023-02-03T09:50:12;39298.48;;;-148.94;100.00
46682;BME280;34101;53.430;-2.224;2023-02-03T09:52:41;39414.25;;;-148.94;100.00
46682;BME280;34101;53.430;-2.224;2023-02-03T09:55:16;39052.52;;;-148.94;100.00
46682;BME280;34101;53.430;-2.224;2023-02-03T09:57:48;40273.77;;;-148.94;100.00
46682;BME280;34101;53.430;-2.224;2023-02-03T10:00:21;39702.10;;;-148.94;100.00
46682;BME280;34101;53.430;-2.224;2023-02-03T10:02:55;39145.31;;;-148.94;100.00
46682;BME280;34101;53.430;-2.224;2023-02-03T10:05:35;38968.67;;;-148.94;100.00
46682;BME280;34101;53.430;-2.224;2023-02-03T10:08:15;39070.77;;;-148.94;100.00
46682;BME280;34101;53.430;-2.224;2023-02-03T10:10:53;39199.05;;;-148.94;100.00
46682;BME280;34101;53.430;-2.224;2023-02-03T10:13:27;40156.19;;;-148.94;100.00
46682;BME280;34101;53.430;-2.224;2023-02-03T10:16:07;39301.79;;;-148.94;100.00
46682;BME280;34101;53.430;-2.224;2023-02-03T10:18:40;39707.59;;;-148.94;100.00
46682;BME280;34101;53.430;-2.224;2023-02-03T10:21:14;39173.52;;;-148.94;100.00
46682;BME280;34101;53.430;-2.224;2023-02-03T10:23:43;38770.21;;;-148.94;100.00
46682;BME280;34101;53.430;-2.224;2023-02-03T10:26:16;38732.30;;;-148.94;100.00
46682;BME280;34101;53.430;-2.224;2023-02-03T10:28:51;38186.37;;;-148.94;100.00
46682;BME280;34101;53.430;-2.224;2023-02-03T10:31:22;37985.14;;;-148.94;100.00
46682;BME280;34101;53.430;-2.224;2023-02-03T10:33:58;38376.12;;;-148.94;100.00
46682;BME280;34101;53.430;-2.224;2023-02-03T10:36:34;39217.17;;;-148.94;100.00
46682;BME280;34101;53.430;-2.224;2023-02-03T10:39:14;39053.54;;;-148.94;100.00
46682;BME280;34101;53.430;-2.224;2023-02-03T10:41:43;39602.40;;;-148.94;100.00
46682;BME280;34101;53.430;-2.224;2023-02-03T10:44:13;39572.02;;;-148.94;100.00
46682;BME280;34101;53.430;-2.224;2023-02-03T10:46:42;39416.93;;;-148.94;100.00
46682;BME280;34101;53.430;-2.224;2023-02-03T10:49:11;39266.57;;;-148.94;100.00
46682;BME280;34101;53.430;-2.224;2023-02-03T10:51:43;39320.05;;;-148.94;100.00
46682;BME280;34101;53.430;-2.224;2023-02-03T10:54:27;39223.42;;;-148.94;100.00
46682;BME280;34101;53.430;-2.224;2023-02-03T10:57:02;39593.72;;;-148.94;100.00
46682;BME280;34101;53.430;-2.224;2023-02-03T10:59:33;40330.84;;;-148.94;100.00
46682;BME280;34101;53.430;-2.224;2023-02-03T11:02:08;39431.35;;;-148.94;100.00
46682;BME280;34101;53.430;-2.224;2023-02-03T11:04:35;39023.29;;;-148.94;100.00
46682;BME280;34101;53.430;-2.224;2023-02-03T11:07:04;38930.76;;;-148.94;100.00
46682;BME280;34101;53.430;-2.224;2023-02-03T11:09:34;39447.18;;;-148.94;100.00
46682;BME280;34101;53.430;-2.224;2023-02-03T11:12:06;39028.01;;;-148.94;100.00
46682;BME280;34101;53.430;-2.224;2023-02-03T11:14:36;39539.60;;;-148.94;100.00
46682;BME280;34101;53.430;-2.224;2023-02-03T11:17:07;39593.98;;;-148.94;100.00
46682;BME280;34101;53.430;-2.224;2023-02-03T11:19:37;39753.41;;;-148.94;100.00
46682;BME280;34101;53.430;-2.224;2023-02-03T11:22:05;39567.93;;;-148.94;100.00
46682;BME280;34101;53.430;-2.224;2023-02-03T11:24:37;40282.58;;;-148.94;100.00
46682;BME280;34101;53.430;-2.224;2023-02-03T11:27:09;40500.52;;;-148.94;100.00
46682;BME280;34101;53.430;-2.224;2023-02-03T11:29:40;40785.13;;;-148.94;100.00
46682;BME280;34101;53.430;-2.224;2023-02-03T11:32:16;41189.16;;;-148.94;100.00
46682;BME280;34101;53.430;-2.224;2023-02-03T11:34:48;40941.94;;;-148.94;100.00
46682;BME280;34101;53.430;-2.224;2023-02-03T11:37:27;40551.47;;;-148.94;100.00
46682;BME280;34101;53.430;-2.224;2023-02-03T11:39:56;40402.34;;;-148.94;100.00
46682;BME280;34101;53.430;-2.224;2023-02-03T11:42:23;41049.08;;;-148.94;100.00
46682;BME280;34101;53.430;-2.224;2023-02-03T11:45:25;41132.46;;;-148.94;100.00
46682;BME280;34101;53.430;-2.224;2023-02-03T11:47:56;41164.00;;;-148.94;100.00
46682;BME280;34101;53.430;-2.224;2023-02-03T11:50:28;40864.68;;;-148.94;100.00
46682;BME280;34101;53.430;-2.224;2023-02-03T11:53:10;41140.25;;;-148.94;100.00
46682;BME280;34101;53.430;-2.224;2023-02-03T11:55:51;40852.17;;;-148.94;100.00
46682;BME280;34101;53.430;-2.224;2023-02-03T11:58:54;40480.48;;;-148.94;100.00
46682;BME280;34101;53.430;-2.224;2023-02-03T12:01:38;40415.62;;;-148.94;100.00
46682;BME280;34101;53.430;-2.224;2023-02-03T12:04:24;40853.19;;;-148.94;100.00
46682;BME280;34101;53.430;-2.224;2023-02-03T12:07:25;40171.25;;;-148.94;100.00
46682;BME280;34101;53.430;-2.224;2023-02-03T12:10:00;39937.24;;;-148.94;100.00
46682;BME280;34101;53.430;-2.224;2023-02-03T12:12:42;40201.64;;;-148.94;100.00
46682;BME280;34101;53.430;-2.224;2023-02-03T12:15:25;39847.62;;;-148.94;100.00
46682;BME280;34101;53.430;-2.224;2023-02-03T12:18:07;39745.88;;;-148.94;100.00
46682;BME280;34101;53.430;-2.224;2023-02-03T12:20:47;39795.67;;;-148.94;100.00
46682;BME280;34101;53.430;-2.224;2023-02-03T12:23:30;40068.74;;;-148.94;100.00
46682;BME280;34101;53.430;-2.224;2023-02-03T12:26:09;39862.94;;;-148.94;100.00
46682;BME280;34101;53.430;-2.224;2023-02-03T12:28:47;39945.80;;;-148.94;100.00
46682;BME280;34101;53.430;-2.224;2023-02-03T12:31:23;39832.56;;;-148.94;100.00
46682;BME280;34101;53.430;-2.224;2023-02-03T12:33:58;39852.48;;;-148.94;100.00
46682;BME280;34101;53.430;-2.224;2023-02-03T12:36:31;39687.29;;;-148.94;100.00